sensor_id;sensor_type;location;lat;lon;timestamp;P1;durP1;ratioP1;P2;durP2;ratioP2
29384;SDS011;16367;48.736;9.218;2023-04-15T00:00:14;7.38;;;1.92;;
29384;SDS011;16367;48.736;9.218;2023-04-15T00:02:19;8.00;;;2.35;;
29384;SDS011;16367;48.736;9.218;2023-04-15T00:04:22;9.25;;;3.25;;
29384;SDS011;16367;48.736;9.218;2023-04-15T00:06:26;7.88;;;2.50;;
29384;SDS011;16367;48.736;9.218;2023-04-15T00:08:29;12.02;;;2.58;;
29384;SDS011;16367;48.736;9.218;2023-04-15T00:10:31;7.18;;;2.45;;
29384;SDS011;16367;48.736;9.218;2023-04-15T00:12:34;5.38;;;2.20;;
29384;SDS011;16367;48.736;9.218;2023-04-15T00:14:37;7.28;;;2.75;;
29384;SDS011;16367;48.736;9.218;2023-04-15T00:16:40;8.18;;;2.50;;
29384;SDS011;16367;48.736;9.218;2023-04-15T00:18:44;5.85;;;2.28;;
29384;SDS011;16367;48.736;9.218;2023-04-15T00:20:47;6.57;;;2.30;;
29384;SDS011;16367;48.736;9.218;2023-04-15T00:22:49;6.68;;;2.40;;
29384;SDS011;16367;48.736;9.218;2023-04-15T00:24:52;7.68;;;2.50;;
29384;SDS011;16367;48.736;9.218;2023-04-15T00:26:55;7.10;;;2.63;;
29384;SDS011;16367;48.736;9.218;2023-04-15T00:28:58;7.55;;;2.80;;
29384;SDS011;16367;48.736;9.218;2023-04-15T00:31:01;8.35;;;2.80;;
29384;SDS011;16367;48.736;9.218;2023-04-15T00:33:04;9.18;;;2.95;;
29384;SDS011;16367;48.736;9.218;2023-04-15T00:35:09;11.00;;;3.00;;
29384;SDS011;16367;48.736;9.218;2023-04-15T00:37:12;6.95;;;2.83;;
29384;SDS011;16367;48.736;9.218;2023-04-15T00:39:15;7.20;;;3.28;;
29384;SDS011;16367;48.736;9.218;2023-04-15T00:41:17;11.52;;;3.47;;
29384;SDS011;16367;48.736;9.218;2023-04-15T00:43:21;10.38;;;3.55;;
29384;SDS011;16367;48.736;9.218;2023-04-15T00:45:24;7.63;;;3.15;;
29384;SDS011;16367;48.736;9.218;2023-04-15T00:47:27;8.27;;;3.15;;
29384;SDS011;16367;48.736;9.218;2023-04-15T00:49:31;7.60;;;3.38;;
29384;SDS011;16367;48.736;9.218;2023-04-15T00:51:35;11.52;;;3.08;;
29384;SDS011;16367;48.736;9.218;2023-04-15T00:53:38;7.82;;;3.15;;
29384;SDS011;16367;48.736;9.218;2023-04-15T00:55:40;8.32;;;3.08;;
29384;SDS011;16367;48.736;9.218;2023-04-15T00:57:43;9.77;;;3.38;;
29384;SDS011;16367;48.736;9.218;2023-04-15T00:59:46;6.40;;;2.80;;
29384;SDS011;16367;48.736;9.218;2023-04-15T01:01:50;7.88;;;3.08;;
29384;SDS011;16367;48.736;9.218;2023-04-15T01:03:53;9.35;;;3.10;;
29384;SDS011;16367;48.736;9.218;2023-04-15T01:05:58;8.75;;;2.92;;
29384;SDS011;16367;48.736;9.218;2023-04-15T01:08:05;9.65;;;3.45;;
29384;SDS011;16367;48.736;9.218;2023-04-15T01:10:08;12.27;;;3.58;;
29384;SDS011;16367;48.736;9.218;2023-04-15T01:12:11;10.68;;;3.22;;
29384;SDS011;16367;48.736;9.218;2023-04-15T01:14:16;9.60;;;3.63;;
29384;SDS011;16367;48.736;9.218;2023-04-15T01:16:19;10.35;;;3.60;;
29384;SDS011;16367;48.736;9.218;2023-04-15T01:18:22;8.52;;;3.40;;
29384;SDS011;16367;48.736;9.218;2023-04-15T01:20:25;6.20;;;3.08;;
29384;SDS011;16367;48.736;9.218;2023-04-15T01:22:28;8.20;;;3.03;;
29384;SDS011;16367;48.736;9.218;2023-04-15T01:24:33;6.50;;;3.30;;
29384;SDS011;16367;48.736;9.218;2023-04-15T01:28:44;7.60;;;3.42;;
29384;SDS011;16367;48.736;9.218;2023-04-15T01:30:47;7.88;;;3.20;;
29384;SDS011;16367;48.736;9.218;2023-04-15T01:32:50;6.25;;;3.03;;
29384;SDS011;16367;48.736;9.218;2023-04-15T01:34:53;9.85;;;3.60;;
29384;SDS011;16367;48.736;9.218;2023-04-15T01:36:56;9.77;;;3.47;;
29384;SDS011;16367;48.736;9.218;2023-04-15T01:38:58;10.38;;;3.40;;
29384;SDS011;16367;48.736;9.218;2023-04-15T01:41:02;7.82;;;3.20;;
29384;SDS011;16367;48.736;9.218;2023-04-15T01:43:06;6.55;;;3.25;;
29384;SDS011;16367;48.736;9.218;2023-04-15T01:45:09;7.70;;;3.38;;
29384;SDS011;16367;48.736;9.218;2023-04-15T01:47:13;8.82;;;3.35;;
29384;SDS011;16367;48.736;9.218;2023-04-15T01:49:16;8.63;;;3.50;;
29384;SDS011;16367;48.736;9.218;2023-04-15T01:51:19;7.18;;;3.50;;
29384;SDS011;16367;48.736;9.218;2023-04-15T01:53:22;7.72;;;3.38;;
29384;SDS011;16367;48.736;9.218;2023-04-15T01:55:25;8.55;;;3.20;;
29384;SDS011;16367;48.736;9.218;2023-04-15T01:57:28;9.15;;;3.47;;
29384;SDS011;16367;48.736;9.218;2023-04-15T01:59:32;6.90;;;3.08;;
29384;SDS011;16367;48.736;9.218;2023-04-15T02:01:35;7.68;;;3.85;;
29384;SDS011;16367;48.736;9.218;2023-04-15T02:03:38;8.40;;;3.53;;
29384;SDS011;16367;48.736;9.218;2023-04-15T02:05:41;7.50;;;2.95;;
29384;SDS011;16367;48.736;9.218;2023-04-15T02:07:43;8.07;;;3.45;;
29384;SDS011;16367;48.736;9.218;2023-04-15T02:09:46;7.30;;;3.63;;
29384;SDS011;16367;48.736;9.218;2023-04-15T02:11:49;10.70;;;3.20;;
29384;SDS011;16367;48.736;9.218;2023-04-15T02:13:53;8.00;;;3.50;;
29384;SDS011;16367;48.736;9.218;2023-04-15T02:15:57;8.55;;;2.88;;
29384;SDS011;16367;48.736;9.218;2023-04-15T02:18:00;7.72;;;3.03;;
29384;SDS011;16367;48.736;9.218;2023-04-15T02:20:03;10.23;;;3.78;;
29384;SDS011;16367;48.736;9.218;2023-04-15T02:22:07;8.98;;;3.70;;
29384;SDS011;16367;48.736;9.218;2023-04-15T02:24:11;12.25;;;3.20;;
29384;SDS011;16367;48.736;9.218;2023-04-15T02:26:14;10.27;;;3.75;;
29384;SDS011;16367;48.736;9.218;2023-04-15T02:28:17;10.90;;;3.47;;
29384;SDS011;16367;48.736;9.218;2023-04-15T02:30:19;11.55;;;3.03;;
29384;SDS011;16367;48.736;9.218;2023-04-15T02:32:25;9.18;;;3.40;;
29384;SDS011;16367;48.736;9.218;2023-04-15T02:34:29;9.20;;;3.45;;
29384;SDS011;16367;48.736;9.218;2023-04-15T02:36:33;10.38;;;3.53;;
29384;SDS011;16367;48.736;9.218;2023-04-15T02:38:36;7.68;;;2.90;;
29384;SDS011;16367;48.736;9.218;2023-04-15T02:40:40;6.30;;;2.55;;
29384;SDS011;16367;48.736;9.218;2023-04-15T02:42:43;7.68;;;3.15;;
29384;SDS011;16367;48.736;9.218;2023-04-15T02:44:46;8.32;;;2.97;;
29384;SDS011;16367;48.736;9.218;2023-04-15T02:46:49;9.52;;;3.03;;
29384;SDS011;16367;48.736;9.218;2023-04-15T02:48:55;9.98;;;3.30;;
29384;SDS011;16367;48.736;9.218;2023-04-15T02:51:13;5.65;;;2.58;;
29384;SDS011;16367;48.736;9.218;2023-04-15T02:53:16;9.85;;;2.90;;
29384;SDS011;16367;48.736;9.218;2023-04-15T02:55:20;9.48;;;2.70;;
29384;SDS011;16367;48.736;9.218;2023-04-15T02:57:22;7.22;;;3.25;;
29384;SDS011;16367;48.736;9.218;2023-04-15T02:59:25;9.55;;;3.00;;
29384;SDS011;16367;48.736;9.218;2023-04-15T03:01:28;8.68;;;3.20;;
29384;SDS011;16367;48.736;9.218;2023-04-15T03:03:31;8.82;;;2.70;;
29384;SDS011;16367;48.736;9.218;2023-04-15T03:05:35;9.05;;;2.97;;
29384;SDS011;16367;48.736;9.218;2023-04-15T03:07:39;8.68;;;2.85;;
29384;SDS011;16367;48.736;9.218;2023-04-15T03:09:42;7.40;;;2.75;;
29384;SDS011;16367;48.736;9.218;2023-04-15T03:11:44;7.22;;;3.20;;
29384;SDS011;16367;48.736;9.218;2023-04-15T03:13:47;6.55;;;2.80;;
29384;SDS011;16367;48.736;9.218;2023-04-15T03:15:50;8.05;;;2.95;;
29384;SDS011;16367;48.736;9.218;2023-04-15T03:17:53;10.65;;;3.03;;
29384;SDS011;16367;48.736;9.218;2023-04-15T03:19:55;6.88;;;3.13;;
29384;SDS011;16367;48.736;9.218;2023-04-15T03:21:59;7.63;;;3.20;;
29384;SDS011;16367;48.736;9.218;2023-04-15T03:24:02;8.32;;;2.85;;
29384;SDS011;16367;48.736;9.218;2023-04-15T03:26:05;9.75;;;3.63;;
29384;SDS011;16367;48.736;9.218;2023-04-15T03:28:07;8.95;;;3.10;;
29384;SDS011;16367;48.736;9.218;2023-04-15T03:30:10;9.80;;;3.20;;
29384;SDS011;16367;48.736;9.218;2023-04-15T03:32:14;6.35;;;2.55;;
29384;SDS011;16367;48.736;9.218;2023-04-15T03:34:16;8.98;;;2.65;;
29384;SDS011;16367;48.736;9.218;2023-04-15T03:36:19;6.82;;;2.75;;
29384;SDS011;16367;48.736;9.218;2023-04-15T03:38:23;6.82;;;2.83;;
29384;SDS011;16367;48.736;9.218;2023-04-15T03:40:26;12.23;;;3.30;;
29384;SDS011;16367;48.736;9.218;2023-04-15T03:42:29;5.95;;;2.90;;
29384;SDS011;16367;48.736;9.218;2023-04-15T03:44:31;8.10;;;3.03;;
29384;SDS011;16367;48.736;9.218;2023-04-15T03:46:34;9.07;;;2.83;;
29384;SDS011;16367;48.736;9.218;2023-04-15T03:48:37;9.60;;;2.67;;
29384;SDS011;16367;48.736;9.218;2023-04-15T03:50:39;7.05;;;2.70;;
29384;SDS011;16367;48.736;9.218;2023-04-15T03:52:42;10.40;;;2.83;;
29384;SDS011;16367;48.736;9.218;2023-04-15T03:54:47;10.40;;;3.10;;
29384;SDS011;16367;48.736;9.218;2023-04-15T03:56:49;9.68;;;2.97;;
29384;SDS011;16367;48.736;9.218;2023-04-15T03:58:52;8.32;;;2.58;;
29384;SDS011;16367;48.736;9.218;2023-04-15T04:00:54;6.82;;;2.70;;
29384;SDS011;16367;48.736;9.218;2023-04-15T04:02:57;7.63;;;2.83;;
29384;SDS011;16367;48.736;9.218;2023-04-15T04:05:00;6.63;;;2.80;;
29384;SDS011;16367;48.736;9.218;2023-04-15T04:07:03;6.85;;;3.00;;
29384;SDS011;16367;48.736;9.218;2023-04-15T04:09:10;14.38;;;2.90;;
29384;SDS011;16367;48.736;9.218;2023-04-15T04:11:14;6.40;;;2.88;;
29384;SDS011;16367;48.736;9.218;2023-04-15T04:13:17;7.03;;;3.05;;
29384;SDS011;16367;48.736;9.218;2023-04-15T04:15:20;6.90;;;2.55;;
29384;SDS011;16367;48.736;9.218;2023-04-15T04:17:23;7.80;;;2.78;;
29384;SDS011;16367;48.736;9.218;2023-04-15T04:19:25;6.68;;;2.60;;
29384;SDS011;16367;48.736;9.218;2023-04-15T04:21:30;6.80;;;2.95;;
29384;SDS011;16367;48.736;9.218;2023-04-15T04:23:34;7.07;;;2.55;;
29384;SDS011;16367;48.736;9.218;2023-04-15T04:25:37;10.30;;;3.05;;
29384;SDS011;16367;48.736;9.218;2023-04-15T04:27:41;9.30;;;2.97;;
29384;SDS011;16367;48.736;9.218;2023-04-15T04:29:43;8.55;;;2.38;;
29384;SDS011;16367;48.736;9.218;2023-04-15T04:31:48;7.68;;;2.75;;
29384;SDS011;16367;48.736;9.218;2023-04-15T04:33:50;7.25;;;2.72;;
29384;SDS011;16367;48.736;9.218;2023-04-15T04:35:53;6.90;;;2.42;;
29384;SDS011;16367;48.736;9.218;2023-04-15T04:37:56;7.75;;;2.80;;
29384;SDS011;16367;48.736;9.218;2023-04-15T04:39:58;6.22;;;3.13;;
29384;SDS011;16367;48.736;9.218;2023-04-15T04:42:01;6.72;;;3.28;;
29384;SDS011;16367;48.736;9.218;2023-04-15T04:44:05;7.57;;;3.10;;
29384;SDS011;16367;48.736;9.218;2023-04-15T04:46:08;7.22;;;2.83;;
29384;SDS011;16367;48.736;9.218;2023-04-15T04:48:12;7.55;;;2.80;;
29384;SDS011;16367;48.736;9.218;2023-04-15T04:50:14;7.72;;;2.72;;
29384;SDS011;16367;48.736;9.218;2023-04-15T04:52:17;6.82;;;2.80;;
29384;SDS011;16367;48.736;9.218;2023-04-15T04:54:20;10.18;;;3.58;;
29384;SDS011;16367;48.736;9.218;2023-04-15T04:56:23;8.43;;;3.22;;
29384;SDS011;16367;48.736;9.218;2023-04-15T04:58:26;9.50;;;3.80;;
29384;SDS011;16367;48.736;9.218;2023-04-15T05:00:30;11.25;;;4.45;;
29384;SDS011;16367;48.736;9.218;2023-04-15T05:02:33;8.85;;;3.53;;
29384;SDS011;16367;48.736;9.218;2023-04-15T05:04:36;10.40;;;3.63;;
29384;SDS011;16367;48.736;9.218;2023-04-15T05:06:39;7.38;;;3.72;;
29384;SDS011;16367;48.736;9.218;2023-04-15T05:08:41;10.20;;;4.95;;
29384;SDS011;16367;48.736;9.218;2023-04-15T05:10:44;14.60;;;6.03;;
29384;SDS011;16367;48.736;9.218;2023-04-15T05:12:47;12.40;;;4.90;;
29384;SDS011;16367;48.736;9.218;2023-04-15T05:14:50;12.45;;;5.07;;
29384;SDS011;16367;48.736;9.218;2023-04-15T05:16:54;19.38;;;5.93;;
29384;SDS011;16367;48.736;9.218;2023-04-15T05:18:57;10.23;;;4.72;;
29384;SDS011;16367;48.736;9.218;2023-04-15T05:21:01;15.73;;;5.70;;
29384;SDS011;16367;48.736;9.218;2023-04-15T05:23:03;16.50;;;5.82;;
29384;SDS011;16367;48.736;9.218;2023-04-15T05:25:06;12.35;;;5.30;;
29384;SDS011;16367;48.736;9.218;2023-04-15T05:27:10;11.68;;;4.85;;
29384;SDS011;16367;48.736;9.218;2023-04-15T05:29:12;11.32;;;4.78;;
29384;SDS011;16367;48.736;9.218;2023-04-15T05:31:15;12.15;;;4.93;;
29384;SDS011;16367;48.736;9.218;2023-04-15T05:33:19;11.90;;;5.13;;
29384;SDS011;16367;48.736;9.218;2023-04-15T05:35:22;11.85;;;5.07;;
29384;SDS011;16367;48.736;9.218;2023-04-15T05:37:25;11.30;;;5.70;;
29384;SDS011;16367;48.736;9.218;2023-04-15T05:39:27;12.73;;;5.82;;
29384;SDS011;16367;48.736;9.218;2023-04-15T05:41:31;13.40;;;5.75;;
29384;SDS011;16367;48.736;9.218;2023-04-15T05:43:34;11.63;;;5.05;;
29384;SDS011;16367;48.736;9.218;2023-04-15T05:45:37;11.80;;;5.95;;
29384;SDS011;16367;48.736;9.218;2023-04-15T05:47:40;12.57;;;5.72;;
29384;SDS011;16367;48.736;9.218;2023-04-15T05:49:44;15.13;;;6.50;;
29384;SDS011;16367;48.736;9.218;2023-04-15T05:51:47;12.57;;;5.90;;
29384;SDS011;16367;48.736;9.218;2023-04-15T05:53:50;14.30;;;5.32;;
29384;SDS011;16367;48.736;9.218;2023-04-15T05:55:52;11.13;;;5.20;;
29384;SDS011;16367;48.736;9.218;2023-04-15T05:57:55;11.43;;;5.32;;
29384;SDS011;16367;48.736;9.218;2023-04-15T05:59:58;12.20;;;4.78;;
29384;SDS011;16367;48.736;9.218;2023-04-15T06:02:00;9.18;;;4.60;;
29384;SDS011;16367;48.736;9.218;2023-04-15T06:04:03;9.43;;;4.32;;
29384;SDS011;16367;48.736;9.218;2023-04-15T06:06:08;13.85;;;5.07;;
29384;SDS011;16367;48.736;9.218;2023-04-15T06:08:11;10.20;;;5.10;;
29384;SDS011;16367;48.736;9.218;2023-04-15T06:10:14;14.85;;;4.55;;
29384;SDS011;16367;48.736;9.218;2023-04-15T06:12:16;12.65;;;5.13;;
29384;SDS011;16367;48.736;9.218;2023-04-15T06:14:19;9.98;;;4.68;;
29384;SDS011;16367;48.736;9.218;2023-04-15T06:16:22;10.27;;;4.93;;
29384;SDS011;16367;48.736;9.218;2023-04-15T06:18:25;9.88;;;4.82;;
29384;SDS011;16367;48.736;9.218;2023-04-15T06:20:27;10.43;;;4.72;;
29384;SDS011;16367;48.736;9.218;2023-04-15T06:22:31;9.75;;;4.53;;
29384;SDS011;16367;48.736;9.218;2023-04-15T06:24:34;8.95;;;4.88;;
29384;SDS011;16367;48.736;9.218;2023-04-15T06:26:37;11.48;;;4.75;;
29384;SDS011;16367;48.736;9.218;2023-04-15T06:28:40;9.15;;;4.72;;
29384;SDS011;16367;48.736;9.218;2023-04-15T06:30:42;9.60;;;4.28;;
29384;SDS011;16367;48.736;9.218;2023-04-15T06:32:45;13.18;;;4.78;;
29384;SDS011;16367;48.736;9.218;2023-04-15T06:34:48;9.07;;;4.55;;
29384;SDS011;16367;48.736;9.218;2023-04-15T06:36:51;9.35;;;4.40;;
29384;SDS011;16367;48.736;9.218;2023-04-15T06:38:56;9.15;;;4.22;;
29384;SDS011;16367;48.736;9.218;2023-04-15T06:40:59;11.52;;;4.22;;
29384;SDS011;16367;48.736;9.218;2023-04-15T06:43:01;9.35;;;3.95;;
29384;SDS011;16367;48.736;9.218;2023-04-15T06:45:05;10.23;;;3.58;;
29384;SDS011;16367;48.736;9.218;2023-04-15T06:47:08;8.50;;;4.10;;
29384;SDS011;16367;48.736;9.218;2023-04-15T06:49:13;11.93;;;4.78;;
29384;SDS011;16367;48.736;9.218;2023-04-15T06:51:16;12.02;;;4.45;;
29384;SDS011;16367;48.736;9.218;2023-04-15T06:53:18;10.93;;;4.70;;
29384;SDS011;16367;48.736;9.218;2023-04-15T06:55:23;8.00;;;4.15;;
29384;SDS011;16367;48.736;9.218;2023-04-15T06:57:26;10.65;;;4.38;;
29384;SDS011;16367;48.736;9.218;2023-04-15T06:59:29;10.70;;;4.75;;
29384;SDS011;16367;48.736;9.218;2023-04-15T07:01:33;10.15;;;4.30;;
29384;SDS011;16367;48.736;9.218;2023-04-15T07:03:35;11.38;;;4.20;;
29384;SDS011;16367;48.736;9.218;2023-04-15T07:05:38;10.23;;;4.47;;
29384;SDS011;16367;48.736;9.218;2023-04-15T07:07:41;9.68;;;4.57;;
29384;SDS011;16367;48.736;9.218;2023-04-15T07:09:45;8.75;;;4.30;;
29384;SDS011;16367;48.736;9.218;2023-04-15T07:11:49;11.25;;;4.60;;
29384;SDS011;16367;48.736;9.218;2023-04-15T07:13:52;8.88;;;3.78;;
29384;SDS011;16367;48.736;9.218;2023-04-15T07:15:55;10.40;;;4.13;;
29384;SDS011;16367;48.736;9.218;2023-04-15T07:17:58;9.05;;;3.53;;
29384;SDS011;16367;48.736;9.218;2023-04-15T07:20:01;8.73;;;3.63;;
29384;SDS011;16367;48.736;9.218;2023-04-15T07:22:04;7.90;;;4.15;;
29384;SDS011;16367;48.736;9.218;2023-04-15T07:24:07;7.05;;;3.55;;
29384;SDS011;16367;48.736;9.218;2023-04-15T07:26:10;8.80;;;3.80;;
29384;SDS011;16367;48.736;9.218;2023-04-15T07:28:15;8.20;;;3.72;;
29384;SDS011;16367;48.736;9.218;2023-04-15T07:30:18;9.45;;;3.67;;
29384;SDS011;16367;48.736;9.218;2023-04-15T07:32:20;8.77;;;3.88;;
29384;SDS011;16367;48.736;9.218;2023-04-15T07:34:23;8.32;;;3.63;;
29384;SDS011;16367;48.736;9.218;2023-04-15T07:36:26;10.88;;;3.55;;
29384;SDS011;16367;48.736;9.218;2023-04-15T07:38:29;8.85;;;4.47;;
29384;SDS011;16367;48.736;9.218;2023-04-15T07:40:32;9.13;;;3.38;;
29384;SDS011;16367;48.736;9.218;2023-04-15T07:42:34;8.02;;;3.83;;
29384;SDS011;16367;48.736;9.218;2023-04-15T07:44:42;11.57;;;4.60;;
29384;SDS011;16367;48.736;9.218;2023-04-15T07:46:45;9.80;;;4.20;;
29384;SDS011;16367;48.736;9.218;2023-04-15T07:48:47;8.48;;;3.60;;
29384;SDS011;16367;48.736;9.218;2023-04-15T07:50:51;9.25;;;4.00;;
29384;SDS011;16367;48.736;9.218;2023-04-15T07:52:53;8.30;;;4.18;;
29384;SDS011;16367;48.736;9.218;2023-04-15T07:54:57;9.55;;;3.50;;
29384;SDS011;16367;48.736;9.218;2023-04-15T07:57:00;10.18;;;3.60;;
29384;SDS011;16367;48.736;9.218;2023-04-15T07:59:03;8.88;;;3.40;;
29384;SDS011;16367;48.736;9.218;2023-04-15T08:01:08;6.93;;;3.72;;
29384;SDS011;16367;48.736;9.218;2023-04-15T08:03:10;9.52;;;3.65;;
29384;SDS011;16367;48.736;9.218;2023-04-15T08:05:14;7.55;;;3.42;;
29384;SDS011;16367;48.736;9.218;2023-04-15T08:07:16;7.63;;;3.28;;
29384;SDS011;16367;48.736;9.218;2023-04-15T08:09:19;8.27;;;3.33;;
29384;SDS011;16367;48.736;9.218;2023-04-15T08:11:22;9.82;;;3.72;;
29384;SDS011;16367;48.736;9.218;2023-04-15T08:13:25;8.95;;;3.45;;
29384;SDS011;16367;48.736;9.218;2023-04-15T08:15:28;8.25;;;3.88;;
29384;SDS011;16367;48.736;9.218;2023-04-15T08:17:34;10.80;;;3.10;;
29384;SDS011;16367;48.736;9.218;2023-04-15T08:19:37;9.82;;;3.70;;
29384;SDS011;16367;48.736;9.218;2023-04-15T08:21:39;9.57;;;3.78;;
29384;SDS011;16367;48.736;9.218;2023-04-15T08:23:42;8.07;;;3.67;;
29384;SDS011;16367;48.736;9.218;2023-04-15T08:25:46;9.20;;;3.92;;
29384;SDS011;16367;48.736;9.218;2023-04-15T08:27:49;8.07;;;3.75;;
29384;SDS011;16367;48.736;9.218;2023-04-15T08:29:52;6.68;;;3.40;;
29384;SDS011;16367;48.736;9.218;2023-04-15T08:31:55;9.35;;;3.60;;
29384;SDS011;16367;48.736;9.218;2023-04-15T08:33:59;7.70;;;3.40;;
29384;SDS011;16367;48.736;9.218;2023-04-15T08:36:02;7.55;;;3.85;;
29384;SDS011;16367;48.736;9.218;2023-04-15T08:38:04;8.63;;;3.80;;
29384;SDS011;16367;48.736;9.218;2023-04-15T08:40:09;8.88;;;3.58;;
29384;SDS011;16367;48.736;9.218;2023-04-15T08:42:15;7.18;;;3.45;;
29384;SDS011;16367;48.736;9.218;2023-04-15T08:44:18;7.70;;;3.30;;
29384;SDS011;16367;48.736;9.218;2023-04-15T08:46:24;8.05;;;3.40;;
29384;SDS011;16367;48.736;9.218;2023-04-15T08:48:28;8.23;;;3.25;;
29384;SDS011;16367;48.736;9.218;2023-04-15T08:50:34;7.80;;;3.40;;
29384;SDS011;16367;48.736;9.218;2023-04-15T08:52:38;12.15;;;3.28;;
29384;SDS011;16367;48.736;9.218;2023-04-15T08:54:41;7.72;;;2.50;;
29384;SDS011;16367;48.736;9.218;2023-04-15T08:56:44;6.78;;;2.55;;
29384;SDS011;16367;48.736;9.218;2023-04-15T08:58:47;7.20;;;2.67;;
29384;SDS011;16367;48.736;9.218;2023-04-15T09:00:50;8.70;;;2.78;;
29384;SDS011;16367;48.736;9.218;2023-04-15T09:02:52;5.70;;;1.75;;
29384;SDS011;16367;48.736;9.218;2023-04-15T09:04:57;5.45;;;1.92;;
29384;SDS011;16367;48.736;9.218;2023-04-15T09:07:01;5.53;;;2.00;;
29384;SDS011;16367;48.736;9.218;2023-04-15T09:09:03;8.18;;;2.22;;
29384;SDS011;16367;48.736;9.218;2023-04-15T09:11:06;7.07;;;2.10;;
29384;SDS011;16367;48.736;9.218;2023-04-15T09:13:09;5.63;;;1.98;;
29384;SDS011;16367;48.736;9.218;2023-04-15T09:15:12;5.18;;;1.85;;
29384;SDS011;16367;48.736;9.218;2023-04-15T09:17:17;4.95;;;1.90;;
29384;SDS011;16367;48.736;9.218;2023-04-15T09:19:21;5.07;;;1.88;;
29384;SDS011;16367;48.736;9.218;2023-04-15T09:21:25;4.18;;;1.60;;
29384;SDS011;16367;48.736;9.218;2023-04-15T09:23:29;4.13;;;1.50;;
29384;SDS011;16367;48.736;9.218;2023-04-15T09:25:31;5.35;;;1.98;;
29384;SDS011;16367;48.736;9.218;2023-04-15T09:27:35;5.25;;;1.85;;
29384;SDS011;16367;48.736;9.218;2023-04-15T09:29:38;5.10;;;1.60;;
29384;SDS011;16367;48.736;9.218;2023-04-15T09:31:42;4.88;;;1.85;;
29384;SDS011;16367;48.736;9.218;2023-04-15T09:33:53;5.75;;;1.73;;
29384;SDS011;16367;48.736;9.218;2023-04-15T09:35:57;5.80;;;1.67;;
29384;SDS011;16367;48.736;9.218;2023-04-15T09:38:02;5.70;;;2.17;;
29384;SDS011;16367;48.736;9.218;2023-04-15T09:40:07;4.70;;;2.13;;
29384;SDS011;16367;48.736;9.218;2023-04-15T09:42:11;7.20;;;2.28;;
29384;SDS011;16367;48.736;9.218;2023-04-15T09:44:21;5.70;;;1.98;;
29384;SDS011;16367;48.736;9.218;2023-04-15T09:48:42;6.85;;;2.10;;
29384;SDS011;16367;48.736;9.218;2023-04-15T09:50:45;7.30;;;2.33;;
29384;SDS011;16367;48.736;9.218;2023-04-15T09:52:49;6.90;;;2.25;;
29384;SDS011;16367;48.736;9.218;2023-04-15T09:54:52;5.40;;;2.13;;
29384;SDS011;16367;48.736;9.218;2023-04-15T09:57:03;6.00;;;1.90;;
29384;SDS011;16367;48.736;9.218;2023-04-15T09:59:06;8.07;;;2.53;;
29384;SDS011;16367;48.736;9.218;2023-04-15T10:01:09;4.88;;;2.35;;
29384;SDS011;16367;48.736;9.218;2023-04-15T10:03:12;7.43;;;2.50;;
29384;SDS011;16367;48.736;9.218;2023-04-15T10:05:20;5.85;;;2.00;;
29384;SDS011;16367;48.736;9.218;2023-04-15T10:07:23;7.38;;;2.45;;
29384;SDS011;16367;48.736;9.218;2023-04-15T10:09:27;5.53;;;2.33;;
29384;SDS011;16367;48.736;9.218;2023-04-15T10:11:30;5.32;;;2.70;;
29384;SDS011;16367;48.736;9.218;2023-04-15T10:13:35;4.93;;;2.55;;
29384;SDS011;16367;48.736;9.218;2023-04-15T10:15:41;7.43;;;2.58;;
29384;SDS011;16367;48.736;9.218;2023-04-15T10:17:46;5.90;;;2.40;;
29384;SDS011;16367;48.736;9.218;2023-04-15T10:19:52;5.13;;;2.20;;
29384;SDS011;16367;48.736;9.218;2023-04-15T10:21:56;6.18;;;2.10;;
29384;SDS011;16367;48.736;9.218;2023-04-15T10:23:59;6.35;;;2.13;;
29384;SDS011;16367;48.736;9.218;2023-04-15T10:26:04;5.78;;;2.13;;
29384;SDS011;16367;48.736;9.218;2023-04-15T10:28:07;6.00;;;1.83;;
29384;SDS011;16367;48.736;9.218;2023-04-15T10:30:12;7.10;;;2.90;;
29384;SDS011;16367;48.736;9.218;2023-04-15T10:32:17;4.82;;;2.03;;
29384;SDS011;16367;48.736;9.218;2023-04-15T10:34:21;6.07;;;2.20;;
29384;SDS011;16367;48.736;9.218;2023-04-15T10:36:26;6.20;;;2.72;;
29384;SDS011;16367;48.736;9.218;2023-04-15T10:38:32;8.98;;;2.38;;
29384;SDS011;16367;48.736;9.218;2023-04-15T10:40:37;6.78;;;2.45;;
29384;SDS011;16367;48.736;9.218;2023-04-15T10:42:40;5.55;;;2.35;;
29384;SDS011;16367;48.736;9.218;2023-04-15T10:44:43;5.68;;;2.25;;
29384;SDS011;16367;48.736;9.218;2023-04-15T10:46:50;5.60;;;2.40;;
29384;SDS011;16367;48.736;9.218;2023-04-15T10:48:53;7.20;;;2.30;;
29384;SDS011;16367;48.736;9.218;2023-04-15T10:50:55;5.22;;;2.13;;
29384;SDS011;16367;48.736;9.218;2023-04-15T10:53:01;4.25;;;1.90;;
29384;SDS011;16367;48.736;9.218;2023-04-15T10:55:11;4.35;;;1.83;;
29384;SDS011;16367;48.736;9.218;2023-04-15T10:57:16;5.32;;;2.15;;
29384;SDS011;16367;48.736;9.218;2023-04-15T10:59:23;7.10;;;2.17;;
29384;SDS011;16367;48.736;9.218;2023-04-15T11:03:55;5.82;;;2.35;;
29384;SDS011;16367;48.736;9.218;2023-04-15T11:05:58;5.70;;;2.00;;
29384;SDS011;16367;48.736;9.218;2023-04-15T11:08:02;6.68;;;2.17;;
29384;SDS011;16367;48.736;9.218;2023-04-15T11:12:53;6.30;;;2.40;;
29384;SDS011;16367;48.736;9.218;2023-04-15T11:14:59;6.80;;;2.60;;
29384;SDS011;16367;48.736;9.218;2023-04-15T11:17:03;4.70;;;2.25;;
29384;SDS011;16367;48.736;9.218;2023-04-15T11:19:05;6.28;;;2.35;;
29384;SDS011;16367;48.736;9.218;2023-04-15T11:21:08;6.18;;;1.95;;
29384;SDS011;16367;48.736;9.218;2023-04-15T11:23:11;4.82;;;2.08;;
29384;SDS011;16367;48.736;9.218;2023-04-15T11:25:22;5.80;;;2.30;;
29384;SDS011;16367;48.736;9.218;2023-04-15T11:27:26;7.22;;;2.70;;
29384;SDS011;16367;48.736;9.218;2023-04-15T11:29:29;5.90;;;2.13;;
29384;SDS011;16367;48.736;9.218;2023-04-15T11:31:32;5.45;;;2.30;;
29384;SDS011;16367;48.736;9.218;2023-04-15T11:33:36;9.27;;;2.88;;
29384;SDS011;16367;48.736;9.218;2023-04-15T11:35:41;6.90;;;2.70;;
29384;SDS011;16367;48.736;9.218;2023-04-15T11:37:44;5.88;;;2.67;;
29384;SDS011;16367;48.736;9.218;2023-04-15T11:39:48;8.10;;;3.15;;
29384;SDS011;16367;48.736;9.218;2023-04-15T11:41:51;6.78;;;2.30;;
29384;SDS011;16367;48.736;9.218;2023-04-15T11:43:54;7.68;;;2.33;;
29384;SDS011;16367;48.736;9.218;2023-04-15T11:45:57;7.32;;;2.40;;
29384;SDS011;16367;48.736;9.218;2023-04-15T11:48:05;5.80;;;1.75;;
29384;SDS011;16367;48.736;9.218;2023-04-15T11:50:19;7.45;;;2.15;;
29384;SDS011;16367;48.736;9.218;2023-04-15T11:52:24;5.05;;;1.90;;
29384;SDS011;16367;48.736;9.218;2023-04-15T11:54:26;6.45;;;2.40;;
29384;SDS011;16367;48.736;9.218;2023-04-15T11:56:29;4.97;;;1.80;;
29384;SDS011;16367;48.736;9.218;2023-04-15T11:58:33;5.88;;;2.40;;
29384;SDS011;16367;48.736;9.218;2023-04-15T12:00:37;6.55;;;2.50;;
29384;SDS011;16367;48.736;9.218;2023-04-15T12:02:41;5.68;;;2.63;;
29384;SDS011;16367;48.736;9.218;2023-04-15T12:04:44;6.32;;;2.45;;
29384;SDS011;16367;48.736;9.218;2023-04-15T12:06:48;6.72;;;2.35;;
29384;SDS011;16367;48.736;9.218;2023-04-15T12:08:54;6.18;;;2.50;;
29384;SDS011;16367;48.736;9.218;2023-04-15T12:11:01;8.10;;;2.78;;
29384;SDS011;16367;48.736;9.218;2023-04-15T12:13:05;6.40;;;2.53;;
29384;SDS011;16367;48.736;9.218;2023-04-15T12:15:09;6.25;;;2.63;;
29384;SDS011;16367;48.736;9.218;2023-04-15T12:17:12;5.93;;;2.20;;
29384;SDS011;16367;48.736;9.218;2023-04-15T12:19:15;6.65;;;2.38;;
29384;SDS011;16367;48.736;9.218;2023-04-15T12:21:19;6.07;;;2.20;;
29384;SDS011;16367;48.736;9.218;2023-04-15T12:23:23;6.63;;;2.60;;
29384;SDS011;16367;48.736;9.218;2023-04-15T12:25:32;8.15;;;2.97;;
29384;SDS011;16367;48.736;9.218;2023-04-15T12:27:36;8.38;;;2.83;;
29384;SDS011;16367;48.736;9.218;2023-04-15T12:29:39;7.85;;;3.30;;
29384;SDS011;16367;48.736;9.218;2023-04-15T12:31:47;7.28;;;2.60;;